sensor_id;sensor_type;location;lat;lon;timestamp;P1;durP1;ratioP1;P2;durP2;ratioP2
2396;SDS011;1209;48.410;9.054;2023-01-29T00:00:40;10.20;;;7.40;;
2396;SDS011;1209;48.410;9.054;2023-01-29T00:03:05;14.47;;;8.30;;
2396;SDS011;1209;48.410;9.054;2023-01-29T00:05:30;17.37;;;9.20;;
2396;SDS011;1209;48.410;9.054;2023-01-29T00:07:56;15.07;;;9.47;;
2396;SDS011;1209;48.410;9.054;2023-01-29T00:10:22;12.73;;;7.20;;
2396;SDS011;1209;48.410;9.054;2023-01-29T00:12:50;17.38;;;8.77;;
2396;SDS011;1209;48.410;9.054;2023-01-29T00:15:16;13.37;;;7.80;;
2396;SDS011;1209;48.410;9.054;2023-01-29T00:17:41;10.53;;;7.87;;
2396;SDS011;1209;48.410;9.054;2023-01-29T00:20:07;11.50;;;8.00;;
2396;SDS011;1209;48.410;9.054;2023-01-29T00:22:33;17.80;;;9.75;;
2396;SDS011;1209;48.410;9.054;2023-01-29T00:24:58;12.57;;;7.63;;
2396;SDS011;1209;48.410;9.054;2023-01-29T00:27:23;15.53;;;8.97;;
2396;SDS011;1209;48.410;9.054;2023-01-29T00:29:49;16.17;;;8.60;;
2396;SDS011;1209;48.410;9.054;2023-01-29T00:32:33;14.18;;;8.18;;
2396;SDS011;1209;48.410;9.054;2023-01-29T00:34:58;17.97;;;9.47;;
2396;SDS011;1209;48.410;9.054;2023-01-29T00:37:24;13.67;;;8.43;;
2396;SDS011;1209;48.410;9.054;2023-01-29T00:39:49;13.43;;;8.00;;
2396;SDS011;1209;48.410;9.054;2023-01-29T00:42:14;12.53;;;8.20;;
2396;SDS011;1209;48.410;9.054;2023-01-29T00:44:58;13.63;;;8.88;;
2396;SDS011;1209;48.410;9.054;2023-01-29T00:47:23;14.93;;;8.37;;
2396;SDS011;1209;48.410;9.054;2023-01-29T00:49:55;13.23;;;7.97;;
2396;SDS011;1209;48.410;9.054;2023-01-29T00:52:21;12.60;;;7.23;;
2396;SDS011;1209;48.410;9.054;2023-01-29T00:54:53;16.17;;;8.45;;
2396;SDS011;1209;48.410;9.054;2023-01-29T00:57:20;13.88;;;8.43;;
2396;SDS011;1209;48.410;9.054;2023-01-29T00:59:45;17.93;;;9.50;;
2396;SDS011;1209;48.410;9.054;2023-01-29T01:02:11;18.37;;;8.10;;
2396;SDS011;1209;48.410;9.054;2023-01-29T01:04:55;19.08;;;9.80;;
2396;SDS011;1209;48.410;9.054;2023-01-29T01:07:20;13.00;;;7.50;;
2396;SDS011;1209;48.410;9.054;2023-01-29T01:09:46;13.50;;;8.20;;
2396;SDS011;1209;48.410;9.054;2023-01-29T01:12:30;12.30;;;8.27;;
2396;SDS011;1209;48.410;9.054;2023-01-29T01:14:55;14.70;;;8.68;;
2396;SDS011;1209;48.410;9.054;2023-01-29T01:17:21;11.70;;;7.70;;
2396;SDS011;1209;48.410;9.054;2023-01-29T01:19:47;14.93;;;8.67;;
2396;SDS011;1209;48.410;9.054;2023-01-29T01:22:12;10.33;;;7.67;;
2396;SDS011;1209;48.410;9.054;2023-01-29T01:24:38;12.80;;;8.13;;
2396;SDS011;1209;48.410;9.054;2023-01-29T01:27:04;12.57;;;8.18;;
2396;SDS011;1209;48.410;9.054;2023-01-29T01:29:30;10.80;;;7.75;;
2396;SDS011;1209;48.410;9.054;2023-01-29T01:31:56;12.55;;;8.63;;
2396;SDS011;1209;48.410;9.054;2023-01-29T01:34:21;13.57;;;8.00;;
2396;SDS011;1209;48.410;9.054;2023-01-29T01:36:47;12.70;;;7.10;;
2396;SDS011;1209;48.410;9.054;2023-01-29T01:39:14;14.55;;;8.70;;
2396;SDS011;1209;48.410;9.054;2023-01-29T01:41:39;12.25;;;7.57;;
2396;SDS011;1209;48.410;9.054;2023-01-29T01:44:04;13.60;;;8.60;;
2396;SDS011;1209;48.410;9.054;2023-01-29T01:46:31;11.70;;;7.20;;
2396;SDS011;1209;48.410;9.054;2023-01-29T01:51:41;8.98;;;6.63;;
2396;SDS011;1209;48.410;9.054;2023-01-29T01:54:11;7.97;;;5.78;;
2396;SDS011;1209;48.410;9.054;2023-01-29T01:56:45;8.52;;;6.03;;
2396;SDS011;1209;48.410;9.054;2023-01-29T01:59:15;9.70;;;6.22;;
2396;SDS011;1209;48.410;9.054;2023-01-29T02:01:43;7.25;;;6.05;;
2396;SDS011;1209;48.410;9.054;2023-01-29T02:04:15;9.35;;;7.03;;
2396;SDS011;1209;48.410;9.054;2023-01-29T02:07:02;14.00;;;6.75;;
2396;SDS011;1209;48.410;9.054;2023-01-29T02:12:25;13.55;;;7.70;;
2396;SDS011;1209;48.410;9.054;2023-01-29T02:14:55;11.45;;;6.88;;
2396;SDS011;1209;48.410;9.054;2023-01-29T02:17:20;11.93;;;6.90;;
2396;SDS011;1209;48.410;9.054;2023-01-29T02:31:31;13.25;;;8.18;;
2396;SDS011;1209;48.410;9.054;2023-01-29T02:37:20;11.10;;;6.80;;
2396;SDS011;1209;48.410;9.054;2023-01-29T02:39:52;13.95;;;7.60;;
2396;SDS011;1209;48.410;9.054;2023-01-29T02:42:36;11.90;;;7.82;;
2396;SDS011;1209;48.410;9.054;2023-01-29T02:47:53;13.18;;;7.30;;
2396;SDS011;1209;48.410;9.054;2023-01-29T02:52:58;12.82;;;7.00;;
2396;SDS011;1209;48.410;9.054;2023-01-29T02:55:35;15.05;;;8.00;;
2396;SDS011;1209;48.410;9.054;2023-01-29T03:00:49;11.70;;;7.25;;
2396;SDS011;1209;48.410;9.054;2023-01-29T03:03:27;12.75;;;7.68;;
2396;SDS011;1209;48.410;9.054;2023-01-29T03:06:05;13.25;;;7.63;;
2396;SDS011;1209;48.410;9.054;2023-01-29T03:08:37;12.85;;;7.53;;
2396;SDS011;1209;48.410;9.054;2023-01-29T03:11:10;13.18;;;8.20;;
2396;SDS011;1209;48.410;9.054;2023-01-29T03:13:40;11.70;;;7.10;;
2396;SDS011;1209;48.410;9.054;2023-01-29T03:18:54;11.35;;;7.22;;
2396;SDS011;1209;48.410;9.054;2023-01-29T03:21:28;15.43;;;8.18;;
2396;SDS011;1209;48.410;9.054;2023-01-29T03:24:21;15.60;;;7.90;;
2396;SDS011;1209;48.410;9.054;2023-01-29T03:27:32;13.75;;;7.60;;
2396;SDS011;1209;48.410;9.054;2023-01-29T03:30:19;9.45;;;6.05;;
2396;SDS011;1209;48.410;9.054;2023-01-29T03:33:08;9.40;;;6.30;;
2396;SDS011;1209;48.410;9.054;2023-01-29T03:35:37;7.20;;;5.28;;
2396;SDS011;1209;48.410;9.054;2023-01-29T03:38:09;10.45;;;6.90;;
2396;SDS011;1209;48.410;9.054;2023-01-29T03:40:46;9.07;;;6.30;;
2396;SDS011;1209;48.410;9.054;2023-01-29T03:51:36;13.00;;;6.55;;
2396;SDS011;1209;48.410;9.054;2023-01-29T03:54:13;7.53;;;4.90;;
2396;SDS011;1209;48.410;9.054;2023-01-29T03:57:26;7.63;;;6.00;;
2396;SDS011;1209;48.410;9.054;2023-01-29T04:02:33;7.30;;;4.30;;
2396;SDS011;1209;48.410;9.054;2023-01-29T04:05:08;7.55;;;4.35;;
2396;SDS011;1209;48.410;9.054;2023-01-29T04:07:40;6.60;;;5.22;;
2396;SDS011;1209;48.410;9.054;2023-01-29T04:10:10;8.80;;;5.07;;
2396;SDS011;1209;48.410;9.054;2023-01-29T04:12:42;9.15;;;4.90;;
2396;SDS011;1209;48.410;9.054;2023-01-29T04:15:12;7.20;;;5.40;;
2396;SDS011;1209;48.410;9.054;2023-01-29T04:17:42;7.28;;;5.43;;
2396;SDS011;1209;48.410;9.054;2023-01-29T04:20:11;8.63;;;5.35;;
2396;SDS011;1209;48.410;9.054;2023-01-29T04:22:37;5.78;;;4.75;;
2396;SDS011;1209;48.410;9.054;2023-01-29T04:25:05;8.07;;;5.50;;
2396;SDS011;1209;48.410;9.054;2023-01-29T04:36:33;7.75;;;5.57;;
2396;SDS011;1209;48.410;9.054;2023-01-29T04:39:12;6.00;;;5.22;;
2396;SDS011;1209;48.410;9.054;2023-01-29T04:41:50;9.50;;;5.43;;
2396;SDS011;1209;48.410;9.054;2023-01-29T04:47:00;8.82;;;5.03;;
2396;SDS011;1209;48.410;9.054;2023-01-29T04:50:34;13.00;;;5.80;;
2396;SDS011;1209;48.410;9.054;2023-01-29T05:00:32;6.70;;;4.67;;
2396;SDS011;1209;48.410;9.054;2023-01-29T05:03:03;7.15;;;5.15;;
2396;SDS011;1209;48.410;9.054;2023-01-29T05:05:30;7.40;;;4.80;;
2396;SDS011;1209;48.410;9.054;2023-01-29T05:07:56;6.67;;;4.13;;
2396;SDS011;1209;48.410;9.054;2023-01-29T05:10:23;7.90;;;5.90;;
2396;SDS011;1209;48.410;9.054;2023-01-29T05:12:51;7.33;;;5.00;;
2396;SDS011;1209;48.410;9.054;2023-01-29T05:15:25;7.50;;;4.70;;
2396;SDS011;1209;48.410;9.054;2023-01-29T05:17:56;5.35;;;3.67;;
2396;SDS011;1209;48.410;9.054;2023-01-29T05:20:25;4.60;;;3.80;;
2396;SDS011;1209;48.410;9.054;2023-01-29T05:22:51;5.27;;;4.00;;
2396;SDS011;1209;48.410;9.054;2023-01-29T05:25:21;3.70;;;3.40;;
2396;SDS011;1209;48.410;9.054;2023-01-29T05:27:49;6.65;;;4.63;;
2396;SDS011;1209;48.410;9.054;2023-01-29T05:30:35;4.63;;;3.97;;
2396;SDS011;1209;48.410;9.054;2023-01-29T05:33:01;4.65;;;4.10;;
2396;SDS011;1209;48.410;9.054;2023-01-29T05:35:27;3.70;;;3.27;;
2396;SDS011;1209;48.410;9.054;2023-01-29T05:37:56;3.73;;;3.20;;
2396;SDS011;1209;48.410;9.054;2023-01-29T05:40:22;3.78;;;3.35;;
2396;SDS011;1209;48.410;9.054;2023-01-29T05:42:49;3.88;;;3.58;;
2396;SDS011;1209;48.410;9.054;2023-01-29T05:45:15;3.15;;;2.85;;
2396;SDS011;1209;48.410;9.054;2023-01-29T05:47:41;5.53;;;3.90;;
2396;SDS011;1209;48.410;9.054;2023-01-29T05:50:07;4.07;;;3.70;;
2396;SDS011;1209;48.410;9.054;2023-01-29T05:52:32;3.70;;;3.40;;
2396;SDS011;1209;48.410;9.054;2023-01-29T05:54:58;4.53;;;3.60;;
2396;SDS011;1209;48.410;9.054;2023-01-29T05:57:23;5.63;;;4.20;;
2396;SDS011;1209;48.410;9.054;2023-01-29T05:59:48;3.73;;;3.43;;
2396;SDS011;1209;48.410;9.054;2023-01-29T06:02:14;4.07;;;3.67;;
2396;SDS011;1209;48.410;9.054;2023-01-29T06:04:39;3.27;;;3.03;;
2396;SDS011;1209;48.410;9.054;2023-01-29T06:07:04;5.73;;;3.50;;
2396;SDS011;1209;48.410;9.054;2023-01-29T06:09:30;3.87;;;3.50;;
2396;SDS011;1209;48.410;9.054;2023-01-29T06:11:55;3.10;;;2.67;;
2396;SDS011;1209;48.410;9.054;2023-01-29T06:14:20;2.60;;;2.40;;
2396;SDS011;1209;48.410;9.054;2023-01-29T06:16:45;3.40;;;3.10;;
2396;SDS011;1209;48.410;9.054;2023-01-29T06:19:11;4.60;;;3.70;;
2396;SDS011;1209;48.410;9.054;2023-01-29T06:21:36;3.80;;;2.87;;
2396;SDS011;1209;48.410;9.054;2023-01-29T06:24:01;3.60;;;3.30;;
2396;SDS011;1209;48.410;9.054;2023-01-29T06:26:27;4.50;;;3.00;;
2396;SDS011;1209;48.410;9.054;2023-01-29T06:28:52;5.10;;;3.13;;
2396;SDS011;1209;48.410;9.054;2023-01-29T06:31:17;3.33;;;2.93;;
2396;SDS011;1209;48.410;9.054;2023-01-29T06:33:43;4.20;;;2.80;;
2396;SDS011;1209;48.410;9.054;2023-01-29T06:36:08;4.73;;;3.57;;
2396;SDS011;1209;48.410;9.054;2023-01-29T06:38:34;5.83;;;3.33;;
2396;SDS011;1209;48.410;9.054;2023-01-29T06:40:59;2.83;;;2.60;;
2396;SDS011;1209;48.410;9.054;2023-01-29T06:43:33;3.08;;;2.83;;
2396;SDS011;1209;48.410;9.054;2023-01-29T06:45:58;2.60;;;2.40;;
2396;SDS011;1209;48.410;9.054;2023-01-29T06:48:24;4.97;;;2.97;;
2396;SDS011;1209;48.410;9.054;2023-01-29T06:50:49;3.37;;;3.17;;
2396;SDS011;1209;48.410;9.054;2023-01-29T06:53:15;4.53;;;3.75;;
2396;SDS011;1209;48.410;9.054;2023-01-29T06:55:42;4.38;;;3.28;;
2396;SDS011;1209;48.410;9.054;2023-01-29T06:58:08;3.60;;;3.27;;
2396;SDS011;1209;48.410;9.054;2023-01-29T07:00:35;4.30;;;3.08;;
2396;SDS011;1209;48.410;9.054;2023-01-29T07:03:01;2.97;;;2.77;;
2396;SDS011;1209;48.410;9.054;2023-01-29T07:05:28;3.05;;;2.85;;
2396;SDS011;1209;48.410;9.054;2023-01-29T07:07:54;6.43;;;3.47;;
2396;SDS011;1209;48.410;9.054;2023-01-29T07:10:19;3.30;;;2.67;;
2396;SDS011;1209;48.410;9.054;2023-01-29T07:12:45;3.60;;;3.00;;
2396;SDS011;1209;48.410;9.054;2023-01-29T07:15:10;3.90;;;3.37;;
2396;SDS011;1209;48.410;9.054;2023-01-29T07:17:37;3.57;;;3.27;;
2396;SDS011;1209;48.410;9.054;2023-01-29T07:20:03;2.60;;;2.40;;
2396;SDS011;1209;48.410;9.054;2023-01-29T07:22:29;3.90;;;3.47;;
2396;SDS011;1209;48.410;9.054;2023-01-29T07:24:55;3.57;;;3.30;;
2396;SDS011;1209;48.410;9.054;2023-01-29T07:27:20;3.67;;;3.37;;
2396;SDS011;1209;48.410;9.054;2023-01-29T07:29:45;3.67;;;3.37;;
2396;SDS011;1209;48.410;9.054;2023-01-29T07:32:11;2.80;;;2.60;;
2396;SDS011;1209;48.410;9.054;2023-01-29T07:34:36;4.80;;;2.80;;
2396;SDS011;1209;48.410;9.054;2023-01-29T07:37:01;3.37;;;3.07;;
2396;SDS011;1209;48.410;9.054;2023-01-29T07:39:27;3.03;;;2.77;;
2396;SDS011;1209;48.410;9.054;2023-01-29T07:41:52;4.37;;;3.20;;
2396;SDS011;1209;48.410;9.054;2023-01-29T07:44:17;3.13;;;2.93;;
2396;SDS011;1209;48.410;9.054;2023-01-29T07:46:43;3.03;;;2.80;;
2396;SDS011;1209;48.410;9.054;2023-01-29T07:49:08;3.20;;;2.90;;
2396;SDS011;1209;48.410;9.054;2023-01-29T07:51:34;2.97;;;2.70;;
2396;SDS011;1209;48.410;9.054;2023-01-29T07:54:00;3.25;;;2.85;;
2396;SDS011;1209;48.410;9.054;2023-01-29T07:56:25;4.30;;;3.77;;
2396;SDS011;1209;48.410;9.054;2023-01-29T07:58:50;4.50;;;3.33;;
2396;SDS011;1209;48.410;9.054;2023-01-29T08:01:15;4.57;;;3.00;;
2396;SDS011;1209;48.410;9.054;2023-01-29T08:03:41;5.50;;;3.70;;
2396;SDS011;1209;48.410;9.054;2023-01-29T08:06:06;4.03;;;3.40;;
2396;SDS011;1209;48.410;9.054;2023-01-29T08:08:31;4.67;;;2.87;;
2396;SDS011;1209;48.410;9.054;2023-01-29T08:10:59;3.63;;;3.33;;
2396;SDS011;1209;48.410;9.054;2023-01-29T08:13:27;3.33;;;3.03;;
2396;SDS011;1209;48.410;9.054;2023-01-29T08:15:52;4.72;;;2.80;;
2396;SDS011;1209;48.410;9.054;2023-01-29T08:18:18;3.23;;;2.93;;
2396;SDS011;1209;48.410;9.054;2023-01-29T08:20:43;4.40;;;4.00;;
2396;SDS011;1209;48.410;9.054;2023-01-29T08:23:12;21.70;;;14.40;;
2396;SDS011;1209;48.410;9.054;2023-01-29T08:25:39;8.35;;;5.68;;
2396;SDS011;1209;48.410;9.054;2023-01-29T08:28:05;4.03;;;3.73;;
2396;SDS011;1209;48.410;9.054;2023-01-29T08:30:31;3.47;;;3.20;;
2396;SDS011;1209;48.410;9.054;2023-01-29T08:32:57;4.10;;;3.65;;
2396;SDS011;1209;48.410;9.054;2023-01-29T08:35:23;7.47;;;3.67;;
2396;SDS011;1209;48.410;9.054;2023-01-29T08:37:56;3.30;;;3.00;;
2396;SDS011;1209;48.410;9.054;2023-01-29T08:40:24;4.25;;;3.90;;
2396;SDS011;1209;48.410;9.054;2023-01-29T08:42:50;3.45;;;2.88;;
2396;SDS011;1209;48.410;9.054;2023-01-29T08:45:15;3.30;;;3.10;;
2396;SDS011;1209;48.410;9.054;2023-01-29T08:47:45;5.60;;;4.37;;
2396;SDS011;1209;48.410;9.054;2023-01-29T08:50:11;4.82;;;3.58;;
2396;SDS011;1209;48.410;9.054;2023-01-29T08:52:36;3.40;;;3.03;;
2396;SDS011;1209;48.410;9.054;2023-01-29T08:55:02;6.20;;;4.60;;
2396;SDS011;1209;48.410;9.054;2023-01-29T08:57:27;3.43;;;3.17;;
2396;SDS011;1209;48.410;9.054;2023-01-29T08:59:52;3.87;;;3.57;;
2396;SDS011;1209;48.410;9.054;2023-01-29T09:02:18;16.57;;;6.70;;
2396;SDS011;1209;48.410;9.054;2023-01-29T09:04:43;8.43;;;5.57;;
2396;SDS011;1209;48.410;9.054;2023-01-29T09:07:08;8.70;;;5.03;;
2396;SDS011;1209;48.410;9.054;2023-01-29T09:09:34;3.97;;;3.30;;
2396;SDS011;1209;48.410;9.054;2023-01-29T09:11:59;3.47;;;3.17;;
2396;SDS011;1209;48.410;9.054;2023-01-29T09:14:24;3.77;;;3.23;;
2396;SDS011;1209;48.410;9.054;2023-01-29T09:16:51;3.53;;;3.33;;
2396;SDS011;1209;48.410;9.054;2023-01-29T09:19:16;3.20;;;2.57;;
2396;SDS011;1209;48.410;9.054;2023-01-29T09:21:42;3.67;;;3.37;;
2396;SDS011;1209;48.410;9.054;2023-01-29T09:24:07;3.23;;;2.93;;
2396;SDS011;1209;48.410;9.054;2023-01-29T09:26:32;3.00;;;2.80;;
2396;SDS011;1209;48.410;9.054;2023-01-29T09:28:58;3.20;;;2.90;;
2396;SDS011;1209;48.410;9.054;2023-01-29T09:31:23;3.97;;;3.67;;
2396;SDS011;1209;48.410;9.054;2023-01-29T09:33:48;3.13;;;2.87;;
2396;SDS011;1209;48.410;9.054;2023-01-29T09:36:14;3.10;;;2.80;;
2396;SDS011;1209;48.410;9.054;2023-01-29T09:38:40;3.47;;;2.90;;
2396;SDS011;1209;48.410;9.054;2023-01-29T09:43:52;4.13;;;3.63;;
2396;SDS011;1209;48.410;9.054;2023-01-29T09:46:29;4.18;;;3.30;;
2396;SDS011;1209;48.410;9.054;2023-01-29T09:51:40;3.67;;;2.58;;
2396;SDS011;1209;48.410;9.054;2023-01-29T09:54:27;3.33;;;3.03;;
2396;SDS011;1209;48.410;9.054;2023-01-29T09:56:56;6.80;;;2.70;;
2396;SDS011;1209;48.410;9.054;2023-01-29T09:59:23;2.57;;;2.47;;
2396;SDS011;1209;48.410;9.054;2023-01-29T10:02:09;4.43;;;2.92;;
2396;SDS011;1209;48.410;9.054;2023-01-29T10:05:07;3.22;;;2.97;;
2396;SDS011;1209;48.410;9.054;2023-01-29T10:10:42;3.47;;;3.00;;
2396;SDS011;1209;48.410;9.054;2023-01-29T10:13:28;2.97;;;2.78;;
2396;SDS011;1209;48.410;9.054;2023-01-29T10:16:05;5.40;;;3.97;;
2396;SDS011;1209;48.410;9.054;2023-01-29T10:19:26;4.43;;;3.13;;
2396;SDS011;1209;48.410;9.054;2023-01-29T10:24:42;2.90;;;2.60;;
2396;SDS011;1209;48.410;9.054;2023-01-29T10:27:19;3.78;;;3.33;;
2396;SDS011;1209;48.410;9.054;2023-01-29T10:29:46;6.77;;;3.33;;
2396;SDS011;1209;48.410;9.054;2023-01-29T10:32:19;4.47;;;3.78;;
2396;SDS011;1209;48.410;9.054;2023-01-29T10:37:18;3.80;;;3.40;;
2396;SDS011;1209;48.410;9.054;2023-01-29T10:39:48;3.55;;;3.25;;
2396;SDS011;1209;48.410;9.054;2023-01-29T10:42:16;5.35;;;4.05;;
2396;SDS011;1209;48.410;9.054;2023-01-29T10:50:48;3.35;;;3.05;;
2396;SDS011;1209;48.410;9.054;2023-01-29T11:00:49;3.40;;;3.10;;
2396;SDS011;1209;48.410;9.054;2023-01-29T11:08:41;4.72;;;3.70;;
2396;SDS011;1209;48.410;9.054;2023-01-29T11:11:17;5.22;;;4.20;;
2396;SDS011;1209;48.410;9.054;2023-01-29T11:16:16;3.88;;;3.40;;
2396;SDS011;1209;48.410;9.054;2023-01-29T11:22:10;3.38;;;3.08;;
2396;SDS011;1209;48.410;9.054;2023-01-29T11:24:28;4.53;;;4.13;;
2396;SDS011;1209;48.410;9.054;2023-01-29T11:26:55;4.57;;;4.18;;
2396;SDS011;1209;48.410;9.054;2023-01-29T11:31:51;5.40;;;4.90;;
2396;SDS011;1209;48.410;9.054;2023-01-29T11:34:18;5.30;;;4.20;;
2396;SDS011;1209;48.410;9.054;2023-01-29T11:36:50;4.45;;;4.05;;
2396;SDS011;1209;48.410;9.054;2023-01-29T11:39:22;8.15;;;5.93;;
2396;SDS011;1209;48.410;9.054;2023-01-29T11:44:25;4.22;;;3.92;;
2396;SDS011;1209;48.410;9.054;2023-01-29T11:46:51;4.90;;;3.90;;
2396;SDS011;1209;48.410;9.054;2023-01-29T11:49:21;5.27;;;4.23;;
2396;SDS011;1209;48.410;9.054;2023-01-29T11:51:59;6.78;;;4.63;;
2396;SDS011;1209;48.410;9.054;2023-01-29T11:54:29;5.32;;;4.32;;
2396;SDS011;1209;48.410;9.054;2023-01-29T11:56:59;4.65;;;3.67;;
2396;SDS011;1209;48.410;9.054;2023-01-29T12:02:17;4.60;;;3.85;;
2396;SDS011;1209;48.410;9.054;2023-01-29T12:04:48;3.80;;;3.40;;
2396;SDS011;1209;48.410;9.054;2023-01-29T12:07:15;5.13;;;4.63;;
2396;SDS011;1209;48.410;9.054;2023-01-29T12:09:51;5.70;;;4.40;;
2396;SDS011;1209;48.410;9.054;2023-01-29T12:12:41;4.72;;;4.22;;
2396;SDS011;1209;48.410;9.054;2023-01-29T12:15:17;5.47;;;4.45;;
2396;SDS011;1209;48.410;9.054;2023-01-29T12:17:48;5.82;;;4.50;;
2396;SDS011;1209;48.410;9.054;2023-01-29T12:20:26;4.40;;;4.00;;
2396;SDS011;1209;48.410;9.054;2023-01-29T12:31:49;4.78;;;3.80;;
2396;SDS011;1209;48.410;9.054;2023-01-29T12:34:28;8.07;;;4.05;;
2396;SDS011;1209;48.410;9.054;2023-01-29T12:37:51;3.72;;;3.42;;
2396;SDS011;1209;48.410;9.054;2023-01-29T12:39:53;5.28;;;4.78;;
2396;SDS011;1209;48.410;9.054;2023-01-29T12:42:20;13.77;;;4.97;;
2396;SDS011;1209;48.410;9.054;2023-01-29T12:47:20;11.75;;;6.65;;
2396;SDS011;1209;48.410;9.054;2023-01-29T12:49:54;10.90;;;5.20;;
2396;SDS011;1209;48.410;9.054;2023-01-29T12:52:38;7.20;;;5.20;;
2396;SDS011;1209;48.410;9.054;2023-01-29T12:55:10;3.60;;;3.30;;
2396;SDS011;1209;48.410;9.054;2023-01-29T12:57:50;4.82;;;4.25;;
2396;SDS011;1209;48.410;9.054;2023-01-29T13:00:21;6.15;;;4.20;;
2396;SDS011;1209;48.410;9.054;2023-01-29T13:02:54;6.15;;;3.67;;
2396;SDS011;1209;48.410;9.054;2023-01-29T13:05:25;4.95;;;4.10;;
2396;SDS011;1209;48.410;9.054;2023-01-29T13:07:57;4.65;;;3.90;;
2396;SDS011;1209;48.410;9.054;2023-01-29T13:10:29;4.15;;;3.80;;
2396;SDS011;1209;48.410;9.054;2023-01-29T13:15:56;4.57;;;3.95;;
2396;SDS011;1209;48.410;9.054;2023-01-29T13:21:11;4.30;;;3.90;;
2396;SDS011;1209;48.410;9.054;2023-01-29T13:23:44;5.53;;;4.40;;
2396;SDS011;1209;48.410;9.054;2023-01-29T13:26:12;4.88;;;4.32;;
2396;SDS011;1209;48.410;9.054;2023-01-29T13:28:41;5.72;;;5.15;;
2396;SDS011;1209;48.410;9.054;2023-01-29T13:31:10;4.53;;;4.07;;
2396;SDS011;1209;48.410;9.054;2023-01-29T13:33:36;5.07;;;4.55;;
2396;SDS011;1209;48.410;9.054;2023-01-29T13:36:02;4.90;;;4.45;;
2396;SDS011;1209;48.410;9.054;2023-01-29T13:38:31;5.65;;;5.07;;
2396;SDS011;1209;48.410;9.054;2023-01-29T13:40:59;5.50;;;4.65;;
2396;SDS011;1209;48.410;9.054;2023-01-29T13:43:30;6.18;;;4.40;;
2396;SDS011;1209;48.410;9.054;2023-01-29T13:46:05;10.30;;;4.78;;
2396;SDS011;1209;48.410;9.054;2023-01-29T13:48:34;4.32;;;3.92;;
2396;SDS011;1209;48.410;9.054;2023-01-29T13:51:08;5.65;;;4.70;;
2396;SDS011;1209;48.410;9.054;2023-01-29T13:53:51;5.18;;;4.68;;
2396;SDS011;1209;48.410;9.054;2023-01-29T13:59:05;6.13;;;4.78;;
2396;SDS011;1209;48.410;9.054;2023-01-29T14:06:50;6.13;;;4.72;;
2396;SDS011;1209;48.410;9.054;2023-01-29T14:11:57;8.38;;;5.32;;
2396;SDS011;1209;48.410;9.054;2023-01-29T14:17:14;6.05;;;5.20;;
2396;SDS011;1209;48.410;9.054;2023-01-29T14:19:51;10.88;;;4.43;;
2396;SDS011;1209;48.410;9.054;2023-01-29T14:22:19;7.00;;;5.50;;
2396;SDS011;1209;48.410;9.054;2023-01-29T14:24:49;4.57;;;4.15;;
2396;SDS011;1209;48.410;9.054;2023-01-29T14:27:20;5.18;;;4.22;;
2396;SDS011;1209;48.410;9.054;2023-01-29T14:29:49;6.75;;;4.90;;
2396;SDS011;1209;48.410;9.054;2023-01-29T14:32:21;5.97;;;4.85;;
2396;SDS011;1209;48.410;9.054;2023-01-29T14:37:21;6.20;;;4.68;;
2396;SDS011;1209;48.410;9.054;2023-01-29T14:39:56;6.32;;;4.82;;
2396;SDS011;1209;48.410;9.054;2023-01-29T14:47:19;6.40;;;4.83;;
2396;SDS011;1209;48.410;9.054;2023-01-29T14:53:08;5.68;;;4.55;;
2396;SDS011;1209;48.410;9.054;2023-01-29T14:55:46;6.38;;;5.03;;
2396;SDS011;1209;48.410;9.054;2023-01-29T14:58:18;5.55;;;4.22;;
2396;SDS011;1209;48.410;9.054;2023-01-29T15:01:05;5.68;;;4.97;;
2396;SDS011;1209;48.410;9.054;2023-01-29T15:03:46;5.75;;;5.13;;
2396;SDS011;1209;48.410;9.054;2023-01-29T15:06:16;8.50;;;4.97;;
2396;SDS011;1209;48.410;9.054;2023-01-29T15:09:11;7.10;;;5.47;;
2396;SDS011;1209;48.410;9.054;2023-01-29T15:11:46;6.72;;;4.88;;
2396;SDS011;1209;48.410;9.054;2023-01-29T15:14:30;8.65;;;5.00;;
2396;SDS011;1209;48.410;9.054;2023-01-29T15:19:57;13.65;;;5.95;;
2396;SDS011;1209;48.410;9.054;2023-01-29T15:22:22;16.80;;;8.00;;
2396;SDS011;1209;48.410;9.054;2023-01-29T15:25:04;10.40;;;7.13;;
2396;SDS011;1209;48.410;9.054;2023-01-29T15:27:31;10.75;;;5.85;;
2396;SDS011;1209;48.410;9.054;2023-01-29T15:29:58;7.33;;;5.60;;
2396;SDS011;1209;48.410;9.054;2023-01-29T15:32:27;6.15;;;4.38;;
2396;SDS011;1209;48.410;9.054;2023-01-29T15:34:57;9.00;;;5.30;;
2396;SDS011;1209;48.410;9.054;2023-01-29T15:37:28;6.25;;;4.28;;
2396;SDS011;1209;48.410;9.054;2023-01-29T15:39:56;8.45;;;5.53;;
2396;SDS011;1209;48.410;9.054;2023-01-29T15:42:22;8.65;;;5.65;;
2396;SDS011;1209;48.410;9.054;2023-01-29T15:44:51;9.00;;;5.47;;
2396;SDS011;1209;48.410;9.054;2023-01-29T15:47:27;7.55;;;5.35;;
2396;SDS011;1209;48.410;9.054;2023-01-29T15:49:55;12.07;;;6.28;;
2396;SDS011;1209;48.410;9.054;2023-01-29T15:52:23;5.60;;;4.70;;
2396;SDS011;1209;48.410;9.054;2023-01-29T15:54:52;8.55;;;5.88;;
2396;SDS011;1209;48.410;9.054;2023-01-29T15:57:21;11.30;;;6.35;;
2396;SDS011;1209;48.410;9.054;2023-01-29T15:59:48;7.22;;;4.20;;
2396;SDS011;1209;48.410;9.054;2023-01-29T16:02:34;9.35;;;5.50;;
2396;SDS011;1209;48.410;9.054;2023-01-29T16:05:02;8.02;;;5.88;;
2396;SDS011;1209;48.410;9.054;2023-01-29T16:07:29;9.02;;;5.70;;
2396;SDS011;1209;48.410;9.054;2023-01-29T16:09:55;13.13;;;8.32;;
2396;SDS011;1209;48.410;9.054;2023-01-29T16:12:22;7.75;;;6.72;;
2396;SDS011;1209;48.410;9.054;2023-01-29T16:14:48;12.80;;;7.97;;
2396;SDS011;1209;48.410;9.054;2023-01-29T16:17:24;7.90;;;5.75;;
2396;SDS011;1209;48.410;9.054;2023-01-29T16:19:57;6.95;;;5.40;;
2396;SDS011;1209;48.410;9.054;2023-01-29T16:22:25;7.68;;;5.35;;
2396;SDS011;1209;48.410;9.054;2023-01-29T16:24:55;12.60;;;5.85;;
2396;SDS011;1209;48.410;9.054;2023-01-29T16:27:25;11.15;;;7.20;;
2396;SDS011;1209;48.410;9.054;2023-01-29T16:29:50;11.53;;;6.97;;
2396;SDS011;1209;48.410;9.054;2023-01-29T16:32:16;10.50;;;7.30;;
2396;SDS011;1209;48.410;9.054;2023-01-29T16:34:42;14.67;;;8.17;;
2396;SDS011;1209;48.410;9.054;2023-01-29T16:37:20;12.43;;;8.30;;
2396;SDS011;1209;48.410;9.054;2023-01-29T16:39:55;12.95;;;7.38;;
2396;SDS011;1209;48.410;9.054;2023-01-29T16:42:22;11.80;;;7.38;;
2396;SDS011;1209;48.410;9.054;2023-01-29T16:47:58;10.32;;;6.95;;
2396;SDS011;1209;48.410;9.054;2023-01-29T16:53:31;8.90;;;6.28;;
2396;SDS011;1209;48.410;9.054;2023-01-29T16:55:51;10.52;;;7.13;;
2396;SDS011;1209;48.410;9.054;2023-01-29T16:58:18;10.53;;;6.70;;
2396;SDS011;1209;48.410;9.054;2023-01-29T17:00:46;9.65;;;7.00;;
2396;SDS011;1209;48.410;9.054;2023-01-29T17:03:14;8.43;;;6.25;;
2396;SDS011;1209;48.410;9.054;2023-01-29T17:05:41;8.52;;;6.68;;
2396;SDS011;1209;48.410;9.054;2023-01-29T17:08:13;11.00;;;7.27;;
2396;SDS011;1209;48.410;9.054;2023-01-29T17:10:46;12.65;;;7.32;;
2396;SDS011;1209;48.410;9.054;2023-01-29T17:13:16;8.90;;;6.95;;
2396;SDS011;1209;48.410;9.054;2023-01-29T17:15:47;12.73;;;7.32;;
2396;SDS011;1209;48.410;9.054;2023-01-29T17:18:14;9.83;;;7.10;;
2396;SDS011;1209;48.410;9.054;2023-01-29T17:20:45;12.60;;;7.50;;
2396;SDS011;1209;48.410;9.054;2023-01-29T17:23:12;11.80;;;7.32;;
2396;SDS011;1209;48.410;9.054;2023-01-29T17:25:38;14.00;;;7.40;;
2396;SDS011;1209;48.410;9.054;2023-01-29T17:28:04;8.63;;;6.90;;
2396;SDS011;1209;48.410;9.054;2023-01-29T17:30:30;13.07;;;8.37;;
2396;SDS011;1209;48.410;9.054;2023-01-29T17:32:58;10.98;;;7.55;;
2396;SDS011;1209;48.410;9.054;2023-01-29T17:35:26;14.77;;;8.40;;
2396;SDS011;1209;48.410;9.054;2023-01-29T17:37:52;13.67;;;7.23;;
2396;SDS011;1209;48.410;9.054;2023-01-29T17:43:24;13.10;;;8.60;;
2396;SDS011;1209;48.410;9.054;2023-01-29T17:45:49;16.40;;;9.27;;
2396;SDS011;1209;48.410;9.054;2023-01-29T17:48:17;17.67;;;8.60;;
2396;SDS011;1209;48.410;9.054;2023-01-29T17:50:46;11.00;;;7.25;;
2396;SDS011;1209;48.410;9.054;2023-01-29T17:53:15;25.25;;;14.25;;
2396;SDS011;1209;48.410;9.054;2023-01-29T17:55:40;43.23;;;16.13;;
2396;SDS011;1209;48.410;9.054;2023-01-29T17:58:09;28.73;;;15.73;;
2396;SDS011;1209;48.410;9.054;2023-01-29T18:00:42;22.10;;;12.40;;
2396;SDS011;1209;48.410;9.054;2023-01-29T18:03:07;22.40;;;14.07;;
2396;SDS011;1209;48.410;9.054;2023-01-29T18:05:33;31.70;;;15.10;;
2396;SDS011;1209;48.410;9.054;2023-01-29T18:07:58;32.87;;;19.20;;